createdAt,value
2023-06-07T00:00:40.639Z,127.58
2023-06-07T00:01:40.677Z,126.32
2023-06-07T00:02:44.210Z,128.34
2023-06-07T00:03:40.804Z,128.43
2023-06-07T00:04:40.741Z,128.67
2023-06-07T00:05:40.679Z,129.81
2023-06-07T00:06:40.665Z,130.29
2023-06-07T00:07:40.718Z,126.29
2023-06-07T00:08:40.656Z,129.33
2023-06-07T00:09:40.682Z,129.80
2023-06-07T00:10:40.688Z,126.13
2023-06-07T00:11:40.679Z,130.10
2023-06-07T00:12:40.678Z,127.52
2023-06-07T00:13:40.693Z,122.28
2023-06-07T00:14:40.695Z,125.19
2023-06-07T00:15:40.713Z,127.75
2023-06-07T00:16:40.695Z,128.13
2023-06-07T00:17:40.704Z,126.99
2023-06-07T00:18:40.714Z,124.24
2023-06-07T00:19:40.679Z,120.63
2023-06-07T00:20:40.697Z,121.33
2023-06-07T00:21:40.680Z,123.63
2023-06-07T00:22:40.693Z,120.71
2023-06-07T00:23:40.703Z,121.70
2023-06-07T00:24:40.737Z,123.26
2023-06-07T00:25:40.709Z,126.87
2023-06-07T00:26:40.713Z,126.33
2023-06-07T00:27:40.719Z,124.59
2023-06-07T00:28:40.715Z,125.75
2023-06-07T00:29:40.721Z,127.99
2023-06-07T00:30:40.746Z,126.87
2023-06-07T00:31:40.765Z,120.76
2023-06-07T00:32:40.772Z,125.16
2023-06-07T00:33:40.794Z,122.45
2023-06-07T00:34:40.848Z,124.86
2023-06-07T00:35:40.900Z,123.93
2023-06-07T00:36:40.945Z,122.65
2023-06-07T00:37:41.019Z,124.92
2023-06-07T00:38:41.060Z,125.50
2023-06-07T00:39:41.104Z,122.26
2023-06-07T00:40:41.163Z,122.54
2023-06-07T00:41:41.207Z,123.95
2023-06-07T00:42:41.256Z,123.93
2023-06-07T00:43:41.309Z,123.79
2023-06-07T00:44:41.370Z,120.86
2023-06-07T00:45:41.414Z,122.20
2023-06-07T00:46:41.467Z,124.98
2023-06-07T00:47:41.629Z,123.79
2023-06-07T00:48:41.799Z,120.96
2023-06-07T00:49:41.637Z,121.50
2023-06-07T00:50:41.696Z,118.16
2023-06-07T00:51:41.743Z,122.35
2023-06-07T00:52:41.804Z,116.25
2023-06-07T00:53:41.883Z,123.50
2023-06-07T00:54:41.905Z,119.33
2023-06-07T00:55:41.961Z,121.91
2023-06-07T00:56:42.019Z,114.33
2023-06-07T00:57:42.122Z,123.27
2023-06-07T00:58:42.132Z,116.99
2023-06-07T00:59:42.186Z,119.12
2023-06-07T01:00:42.252Z,119.50
2023-06-07T01:01:42.335Z,113.36
2023-06-07T01:02:42.453Z,118.92
2023-06-07T01:03:42.539Z,121.29
2023-06-07T01:04:42.474Z,119.63
2023-06-07T01:05:42.609Z,117.61
2023-06-07T01:06:42.588Z,117.81
2023-06-07T01:07:42.644Z,113.34
2023-06-07T01:08:42.742Z,121.80
2023-06-07T01:09:42.755Z,113.72
2023-06-07T01:10:42.811Z,120.15
2023-06-07T01:11:42.862Z,119.58
2023-06-07T01:12:42.937Z,116.36
2023-06-07T01:13:43.019Z,113.74
2023-06-07T01:14:44.616Z,115.09
2023-06-07T01:15:43.080Z,117.01
2023-06-07T01:16:43.166Z,118.11
2023-06-07T01:17:43.201Z,118.38
2023-06-07T01:18:43.241Z,118.66
2023-06-07T01:19:43.290Z,116.21
2023-06-07T01:20:43.346Z,115.41
2023-06-07T01:21:43.402Z,115.66
2023-06-07T01:22:43.462Z,117.44
2023-06-07T01:23:43.539Z,118.91
2023-06-07T01:24:43.600Z,114.75
2023-06-07T01:25:43.613Z,116.85
2023-06-07T01:26:43.666Z,105.43
2023-06-07T01:27:43.720Z,116.46
2023-06-07T01:28:43.773Z,115.30
2023-06-07T01:29:43.827Z,117.69
2023-06-07T01:30:43.901Z,115.70
2023-06-07T01:31:44.019Z,112.89
2023-06-07T01:32:44.048Z,113.02
2023-06-07T01:33:44.060Z,115.89
2023-06-07T01:34:44.113Z,119.11
2023-06-07T01:35:44.168Z,114.99
2023-06-07T01:36:44.220Z,114.11
2023-06-07T01:37:44.276Z,113.98
2023-06-07T01:38:44.321Z,112.66
2023-06-07T01:39:44.376Z,108.38
2023-06-07T01:40:44.434Z,112.57
2023-06-07T01:41:44.489Z,108.99
2023-06-07T01:42:44.556Z,113.67
2023-06-07T01:43:44.596Z,114.84
2023-06-07T01:44:44.723Z,113.43
2023-06-07T01:45:44.798Z,110.85
2023-06-07T01:46:44.770Z,114.45
2023-06-07T01:47:44.832Z,111.73
2023-06-07T01:48:44.880Z,113.19
2023-06-07T01:49:44.929Z,107.08
2023-06-07T01:50:45.005Z,113.09
2023-06-07T01:51:45.040Z,114.09
2023-06-07T01:52:45.100Z,111.00
2023-06-07T01:53:45.160Z,110.36
2023-06-07T01:54:45.205Z,112.29
2023-06-07T01:55:45.292Z,108.07
2023-06-07T01:56:45.334Z,112.83
2023-06-07T01:57:45.388Z,110.84
2023-06-07T01:58:45.445Z,110.44
2023-06-07T01:59:45.515Z,108.72
2023-06-07T02:00:45.574Z,112.36
2023-06-07T02:01:45.700Z,109.90
2023-06-07T02:02:45.695Z,109.90
2023-06-07T02:03:45.787Z,110.32
2023-06-07T02:04:45.792Z,106.77
2023-06-07T02:05:45.852Z,107.54
2023-06-07T02:06:45.906Z,110.33
2023-06-07T02:07:45.971Z,109.50
2023-06-07T02:08:46.005Z,109.20
2023-06-07T02:09:46.068Z,110.58
2023-06-07T02:10:46.109Z,106.45
2023-06-07T02:11:46.165Z,110.38
2023-06-07T02:12:46.228Z,111.45
2023-06-07T02:13:46.283Z,108.85
2023-06-07T02:14:46.333Z,108.54
2023-06-07T02:15:46.407Z,111.30
2023-06-07T02:16:46.520Z,107.82
2023-06-07T02:17:46.534Z,109.77
2023-06-07T02:18:46.561Z,107.93
2023-06-07T02:19:46.620Z,108.84
2023-06-07T02:20:46.688Z,106.32
2023-06-07T02:21:46.748Z,107.02
2023-06-07T02:22:46.809Z,107.25
2023-06-07T02:23:46.914Z,109.37
2023-06-07T02:24:46.918Z,108.16
2023-06-07T02:25:46.977Z,108.65
2023-06-07T02:26:47.040Z,106.72
2023-06-07T02:27:47.092Z,107.92
2023-06-07T02:28:47.142Z,104.60
2023-06-07T02:29:47.195Z,105.82
2023-06-07T02:30:47.263Z,99.45
2023-06-07T02:31:47.500Z,107.23
2023-06-07T02:32:47.428Z,106.99
2023-06-07T02:33:47.445Z,105.10
2023-06-07T02:34:47.504Z,106.56
2023-06-07T02:35:47.569Z,104.69
2023-06-07T02:36:47.619Z,108.61
2023-06-07T02:37:47.683Z,107.70
2023-06-07T02:38:47.733Z,105.06
2023-06-07T02:39:47.800Z,105.17
2023-06-07T02:40:47.848Z,100.45
2023-06-07T02:41:47.966Z,105.99
2023-06-07T02:42:47.957Z,103.64
2023-06-07T02:43:48.015Z,102.37
2023-06-07T02:44:48.095Z,101.27
2023-06-07T02:45:48.143Z,100.70
2023-06-07T02:46:48.278Z,102.51
2023-06-07T02:47:48.299Z,102.56
2023-06-07T02:48:48.323Z,103.59
2023-06-07T02:49:48.394Z,104.96
2023-06-07T02:50:48.448Z,101.92
2023-06-07T02:51:48.503Z,105.36
2023-06-07T02:52:48.567Z,101.22
2023-06-07T02:53:48.642Z,101.81
2023-06-07T02:54:48.696Z,102.77
2023-06-07T02:55:48.769Z,100.03
2023-06-07T02:56:48.829Z,102.94
2023-06-07T02:57:48.871Z,98.93
2023-06-07T02:58:48.936Z,101.76
2023-06-07T02:59:48.997Z,101.15
2023-06-07T03:00:49.158Z,101.82
2023-06-07T03:01:49.112Z,101.78
2023-06-07T03:02:49.237Z,100.19
2023-06-07T03:03:49.216Z,100.31
2023-06-07T03:04:49.282Z,102.72
2023-06-07T03:05:49.356Z,99.56
2023-06-07T03:06:49.409Z,100.72
2023-06-07T03:07:49.450Z,101.77
2023-06-07T03:08:49.510Z,100.84
2023-06-07T03:09:49.562Z,100.01
2023-06-07T03:10:49.618Z,99.95
2023-06-07T03:11:49.686Z,99.82
2023-06-07T03:12:49.729Z,97.64
2023-06-07T03:13:49.779Z,99.48
2023-06-07T03:14:49.842Z,97.03
2023-06-07T03:15:49.910Z,97.16
2023-06-07T03:16:50.018Z,96.61
2023-06-07T03:17:50.036Z,100.21
2023-06-07T03:18:50.089Z,100.73
2023-06-07T03:19:50.160Z,99.22
2023-06-07T03:20:50.196Z,98.51
2023-06-07T03:21:50.264Z,98.02
2023-06-07T03:22:50.319Z,98.74
2023-06-07T03:23:50.426Z,99.11
2023-06-07T03:24:50.431Z,99.63
2023-06-07T03:25:50.571Z,98.65
2023-06-07T03:26:50.554Z,98.34
2023-06-07T03:27:50.611Z,98.16
2023-06-07T03:28:50.679Z,97.05
2023-06-07T03:29:50.736Z,95.69
2023-06-07T03:30:50.796Z,96.71
2023-06-07T03:31:50.860Z,97.03
2023-06-07T03:32:50.961Z,99.28
2023-06-07T03:33:50.975Z,99.55
2023-06-07T03:34:51.034Z,96.69
2023-06-07T03:35:51.098Z,98.88
2023-06-07T03:36:51.160Z,94.79
2023-06-07T03:37:51.214Z,97.47
2023-06-07T03:38:51.279Z,98.05
2023-06-07T03:39:51.336Z,95.10
2023-06-07T03:40:51.404Z,93.08
2023-06-07T03:41:51.486Z,96.54
2023-06-07T03:42:51.534Z,95.33
2023-06-07T03:43:51.593Z,93.21
2023-06-07T03:44:51.662Z,93.64
2023-06-07T03:45:51.722Z,95.70
2023-06-07T03:46:51.786Z,96.21
2023-06-07T03:47:51.898Z,96.82
2023-06-07T03:48:53.183Z,95.65
2023-06-07T03:49:51.966Z,94.57
2023-06-07T03:50:52.042Z,96.04
2023-06-07T03:51:52.122Z,93.67
2023-06-07T03:52:52.162Z,93.41
2023-06-07T03:53:52.229Z,94.56
2023-06-07T03:54:52.284Z,92.78
2023-06-07T03:55:52.355Z,93.57
2023-06-07T03:56:52.416Z,94.65
2023-06-07T03:57:52.487Z,94.44
2023-06-07T03:58:52.536Z,94.57
2023-06-07T03:59:52.599Z,94.39
2023-06-07T04:00:52.659Z,92.04
2023-06-07T04:01:52.736Z,95.68
2023-06-07T04:02:52.874Z,92.23
2023-06-07T04:03:52.997Z,89.45
2023-06-07T04:04:52.943Z,91.60
2023-06-07T04:05:52.966Z,91.72
2023-06-07T04:06:53.016Z,91.18
2023-06-07T04:07:53.076Z,92.03
2023-06-07T04:08:53.152Z,92.99
2023-06-07T04:09:53.192Z,90.93
2023-06-07T04:10:53.261Z,91.33
2023-06-07T04:11:53.317Z,91.41
2023-06-07T04:12:53.381Z,91.81
2023-06-07T04:13:53.449Z,90.66
2023-06-07T04:14:53.522Z,91.38
2023-06-07T04:15:53.590Z,91.42
2023-06-07T04:16:53.770Z,95.70
2023-06-07T04:17:53.707Z,90.98
2023-06-07T04:18:53.775Z,87.60
2023-06-07T04:19:53.835Z,90.95
2023-06-07T04:20:53.938Z,88.70
2023-06-07T04:21:53.987Z,89.92
2023-06-07T04:22:54.033Z,88.64
2023-06-07T04:23:54.133Z,85.93
2023-06-07T04:24:54.156Z,88.56
2023-06-07T04:25:54.221Z,90.06
2023-06-07T04:26:54.342Z,87.03
2023-06-07T04:27:54.342Z,90.67
2023-06-07T04:28:54.401Z,90.27
2023-06-07T04:29:54.457Z,89.29
2023-06-07T04:30:54.525Z,89.02
2023-06-07T04:31:54.590Z,88.70
2023-06-07T04:32:54.689Z,85.77
2023-06-07T04:33:54.720Z,88.61
2023-06-07T04:34:54.773Z,85.78
2023-06-07T04:35:54.846Z,85.36
2023-06-07T04:36:54.897Z,83.99
2023-06-07T04:37:54.965Z,83.89
2023-06-07T04:38:58.670Z,87.33
2023-06-07T04:39:55.034Z,87.42
2023-06-07T04:40:55.052Z,87.27
2023-06-07T04:41:55.061Z,87.42
2023-06-07T04:42:55.082Z,87.66
2023-06-07T04:43:55.089Z,82.54
2023-06-07T04:44:55.093Z,85.93
2023-06-07T04:45:55.320Z,83.16
2023-06-07T04:46:55.547Z,83.90
2023-06-07T04:47:55.135Z,83.51
2023-06-07T04:48:55.109Z,82.15
2023-06-07T04:49:55.115Z,82.89
2023-06-07T04:50:55.128Z,84.62
2023-06-07T04:51:55.194Z,81.01
2023-06-07T04:52:55.119Z,81.72
2023-06-07T04:53:55.129Z,83.45
2023-06-07T04:54:55.136Z,81.78
2023-06-07T04:55:55.157Z,83.37
2023-06-07T04:56:55.159Z,82.87
2023-06-07T04:57:55.197Z,81.79
2023-06-07T04:58:55.170Z,81.00
2023-06-07T04:59:55.169Z,78.34
2023-06-07T05:00:55.170Z,80.45
2023-06-07T05:01:55.213Z,79.85
2023-06-07T05:02:55.272Z,78.41
2023-06-07T05:03:55.248Z,78.54
2023-06-07T05:04:55.319Z,77.45
2023-06-07T05:05:55.358Z,78.90
2023-06-07T05:06:55.412Z,77.80
2023-06-07T05:07:55.462Z,77.25
2023-06-07T05:08:55.517Z,78.87
2023-06-07T05:09:55.608Z,79.39
2023-06-07T05:10:55.637Z,79.44
2023-06-07T05:11:55.677Z,75.61
2023-06-07T05:12:55.727Z,79.21
2023-06-07T05:13:55.778Z,77.68
2023-06-07T05:14:55.840Z,75.64
2023-06-07T05:15:55.962Z,73.84
2023-06-07T05:16:55.941Z,78.32
2023-06-07T05:17:56.173Z,75.62
2023-06-07T05:18:56.126Z,77.76
2023-06-07T05:19:56.104Z,72.97
2023-06-07T05:20:56.140Z,67.36
2023-06-07T05:21:56.250Z,64.12
2023-06-07T05:22:56.334Z,57.53
2023-06-07T05:23:56.332Z,49.57
2023-06-07T05:24:56.366Z,29.69
2023-06-07T05:25:56.430Z,20.67
2023-06-07T05:26:56.466Z,25.06
2023-06-07T05:28:11.868Z,26.17
2023-06-07T05:28:57.528Z,26.57
2023-06-07T05:29:56.542Z,30.45
2023-06-07T05:30:56.592Z,36.67
2023-06-07T05:31:56.660Z,47.19
2023-06-07T05:32:56.645Z,61.86
2023-06-07T05:33:56.578Z,68.20
2023-06-07T05:34:56.584Z,64.02
2023-06-07T05:35:56.579Z,73.05
2023-06-07T05:36:56.598Z,68.69
2023-06-07T05:37:56.601Z,75.60
2023-06-07T05:38:56.612Z,77.55
2023-06-07T05:39:56.622Z,74.18
2023-06-07T05:40:56.637Z,74.84
2023-06-07T05:41:56.629Z,74.06
2023-06-07T05:42:56.652Z,84.79
2023-06-07T05:43:56.659Z,85.18
2023-06-07T05:44:56.695Z,86.05
2023-06-07T05:45:56.825Z,78.42
2023-06-07T05:46:56.899Z,82.23
2023-06-07T05:47:56.845Z,83.36
2023-06-07T05:48:56.845Z,89.24
2023-06-07T05:49:56.895Z,85.25
2023-06-07T05:50:56.927Z,97.59
2023-06-07T05:51:56.970Z,88.49
2023-06-07T05:52:57.000Z,86.81
2023-06-07T05:53:57.039Z,86.24
2023-06-07T05:54:57.080Z,86.75
2023-06-07T05:55:57.110Z,87.12
2023-06-07T05:56:57.152Z,94.61
2023-06-07T05:57:57.182Z,88.90
2023-06-07T05:58:57.215Z,93.26
2023-06-07T05:59:57.253Z,89.25
2023-06-07T06:00:57.282Z,95.11
2023-06-07T06:01:57.559Z,91.64
2023-06-07T06:02:57.433Z,89.71
2023-06-07T06:03:57.377Z,90.52
2023-06-07T06:04:57.451Z,139.35
2023-06-07T06:05:57.452Z,141.44
2023-06-07T06:06:57.476Z,120.07
2023-06-07T06:07:57.522Z,80.63
2023-06-07T06:08:57.551Z,53.03
2023-06-07T06:09:57.599Z,30.00
2023-06-07T06:10:57.642Z,24.80
2023-06-07T06:11:57.702Z,27.48
2023-06-07T06:12:57.742Z,22.55
2023-06-07T06:13:57.777Z,22.45
2023-06-07T06:14:57.828Z,19.46
2023-06-07T06:15:57.853Z,23.52
2023-06-07T06:16:57.921Z,22.21
2023-06-07T06:17:57.978Z,23.51
2023-06-07T06:18:57.996Z,25.99
2023-06-07T06:19:58.037Z,27.80
2023-06-07T06:20:58.073Z,25.00
2023-06-07T06:21:58.129Z,42.53
2023-06-07T06:22:59.128Z,43.18
2023-06-07T06:23:58.141Z,45.54
2023-06-07T06:24:58.159Z,53.08
2023-06-07T06:25:58.155Z,72.58
2023-06-07T06:26:58.152Z,104.49
2023-06-07T06:27:58.242Z,105.49
2023-06-07T06:28:58.147Z,105.91
2023-06-07T06:29:58.132Z,109.31
2023-06-07T06:30:58.189Z,119.44
2023-06-07T06:31:58.140Z,136.93
2023-06-07T06:32:59.139Z,107.77
2023-06-07T06:33:58.274Z,116.98
2023-06-07T06:34:58.150Z,137.40
2023-06-07T06:35:58.740Z,165.58
2023-06-07T06:36:58.152Z,225.67
2023-06-07T06:37:58.822Z,227.57
2023-06-07T06:38:58.144Z,238.36
2023-06-07T06:39:58.160Z,238.99
2023-06-07T06:40:58.162Z,242.54
2023-06-07T06:41:58.148Z,252.84
2023-06-07T06:42:58.143Z,264.66
2023-06-07T06:43:58.138Z,290.42
2023-06-07T06:44:58.193Z,250.48
2023-06-07T06:45:58.146Z,249.86
2023-06-07T06:46:58.176Z,250.00
2023-06-07T06:47:58.185Z,250.00
2023-06-07T06:49:11.531Z,249.45
2023-06-07T06:49:59.222Z,249.81
2023-06-07T06:50:58.131Z,251.60
2023-06-07T06:51:58.140Z,256.23
2023-06-07T06:52:58.115Z,265.41
2023-06-07T06:53:58.740Z,276.32
2023-06-07T06:54:58.104Z,266.59
2023-06-07T06:55:58.094Z,250.06
2023-06-07T06:56:58.104Z,249.65
2023-06-07T06:57:58.073Z,249.43
2023-06-07T06:58:58.083Z,249.15
2023-06-07T06:59:58.073Z,250.00
2023-06-07T07:00:58.071Z,248.60
2023-06-07T07:01:58.213Z,249.48
2023-06-07T07:02:58.092Z,249.70
2023-06-07T07:03:58.109Z,250.29
2023-06-07T07:04:58.052Z,250.00
2023-06-07T07:05:58.074Z,250.67
2023-06-07T07:06:58.829Z,249.62
2023-06-07T07:07:58.052Z,250.00
2023-06-07T07:08:58.036Z,248.66
2023-06-07T07:09:58.035Z,249.43
2023-06-07T07:10:58.022Z,247.92
2023-06-07T07:11:58.017Z,249.13
2023-06-07T07:12:58.826Z,250.00
2023-06-07T07:13:57.995Z,250.00
2023-06-07T07:14:57.987Z,250.00
2023-06-07T07:15:58.022Z,249.82
2023-06-07T07:16:58.007Z,250.00
2023-06-07T07:17:58.018Z,241.32
2023-06-07T07:18:57.973Z,242.27
2023-06-07T07:19:58.073Z,248.30
2023-06-07T07:20:58.016Z,239.65
2023-06-07T07:21:58.089Z,243.66
2023-06-07T07:22:58.097Z,245.74
2023-06-07T07:23:58.161Z,247.12
2023-06-07T07:24:58.195Z,249.74
2023-06-07T07:25:58.216Z,248.85
2023-06-07T07:26:58.320Z,248.17
2023-06-07T07:27:58.302Z,249.14
2023-06-07T07:28:58.315Z,249.14
2023-06-07T07:29:58.314Z,248.42
2023-06-07T07:30:58.879Z,248.63
2023-06-07T07:31:58.850Z,250.00
2023-06-07T07:32:58.353Z,248.94
2023-06-07T07:33:58.331Z,248.65
2023-06-07T07:34:58.343Z,248.85
2023-06-07T07:35:58.321Z,249.38
2023-06-07T07:36:58.314Z,248.45
2023-06-07T07:37:58.836Z,248.00
2023-06-07T07:38:58.408Z,249.37
2023-06-07T07:39:58.331Z,248.09
2023-06-07T07:40:58.355Z,249.37
2023-06-07T07:41:58.330Z,246.99
2023-06-07T07:42:58.449Z,248.30
2023-06-07T07:43:58.356Z,247.45
2023-06-07T07:44:58.378Z,247.96
2023-06-07T07:45:58.377Z,249.02
2023-06-07T07:46:58.347Z,248.05
2023-06-07T07:47:58.386Z,248.90
2023-06-07T07:48:58.337Z,249.15
2023-06-07T07:49:59.269Z,248.68
2023-06-07T07:50:58.886Z,247.77
2023-06-07T07:51:58.364Z,247.51
2023-06-07T07:52:58.360Z,248.99
2023-06-07T07:53:58.885Z,248.83
2023-06-07T07:54:58.378Z,245.66
2023-06-07T07:55:58.379Z,244.47
2023-06-07T07:56:58.410Z,246.12
2023-06-07T07:57:58.403Z,246.42
2023-06-07T07:58:58.422Z,246.95
2023-06-07T07:59:58.405Z,245.78
2023-06-07T08:00:58.416Z,246.84
2023-06-07T08:01:58.419Z,244.53
2023-06-07T08:02:58.475Z,242.49
2023-06-07T08:03:58.517Z,244.77
2023-06-07T08:04:58.483Z,243.27
2023-06-07T08:05:58.463Z,242.97
2023-06-07T08:06:58.462Z,242.49
2023-06-07T08:07:58.453Z,242.73
2023-06-07T08:08:58.471Z,241.96
2023-06-07T08:09:58.544Z,240.27
2023-06-07T08:10:58.482Z,222.51
2023-06-07T08:11:58.506Z,209.05
2023-06-07T08:12:58.507Z,193.09
2023-06-07T08:13:58.519Z,186.93
2023-06-07T08:14:58.535Z,182.73
2023-06-07T08:15:58.582Z,148.44
2023-06-07T08:16:58.594Z,119.83
2023-06-07T08:17:58.630Z,102.15
2023-06-07T08:18:58.714Z,79.70
2023-06-07T08:19:58.704Z,64.88
2023-06-07T08:20:58.734Z,45.98
2023-06-07T08:21:58.778Z,43.25
2023-06-07T08:22:58.807Z,47.80
2023-06-07T08:23:58.883Z,45.30
2023-06-07T08:24:58.902Z,48.75
2023-06-07T08:25:59.053Z,37.85
2023-06-07T08:26:58.962Z,29.33
2023-06-07T08:27:58.990Z,23.46
2023-06-07T08:28:59.024Z,34.72
2023-06-07T08:29:59.051Z,40.11
2023-06-07T08:30:59.095Z,29.19
2023-06-07T08:31:59.157Z,28.91
2023-06-07T08:32:59.203Z,18.94
2023-06-07T08:33:59.124Z,24.12
2023-06-07T08:34:59.139Z,36.65
2023-06-07T08:35:59.139Z,39.03
2023-06-07T08:36:59.149Z,32.20
2023-06-07T08:37:59.150Z,25.00
2023-06-07T08:38:59.140Z,26.18
2023-06-07T08:39:59.140Z,18.83
2023-06-07T08:40:59.140Z,26.77
2023-06-07T08:41:59.151Z,31.04
2023-06-07T08:42:59.134Z,33.57
2023-06-07T08:43:59.140Z,30.63
2023-06-07T08:44:59.154Z,31.00
2023-06-07T08:45:59.192Z,29.63
2023-06-07T08:46:59.737Z,32.23
2023-06-07T08:47:59.196Z,34.66
2023-06-07T08:48:59.149Z,31.81
2023-06-07T08:49:59.127Z,19.01
2023-06-07T08:50:59.115Z,25.00
2023-06-07T08:52:14.013Z,25.00
2023-06-07T08:53:00.095Z,24.46
2023-06-07T08:53:59.088Z,25.50
2023-06-07T08:54:59.069Z,26.86
2023-06-07T08:55:59.070Z,29.20
2023-06-07T08:56:59.154Z,33.11
2023-06-07T08:57:59.147Z,36.75
2023-06-07T08:58:59.046Z,30.60
2023-06-07T08:59:59.038Z,25.59
2023-06-07T09:00:59.047Z,25.51
2023-06-07T09:01:59.057Z,33.25
2023-06-07T09:02:59.082Z,32.29
2023-06-07T09:03:59.029Z,30.59
2023-06-07T09:04:58.979Z,34.71
2023-06-07T09:05:59.031Z,38.22
2023-06-07T09:06:59.088Z,32.09
2023-06-07T09:07:59.151Z,25.52
2023-06-07T09:08:59.219Z,25.00
2023-06-07T09:09:59.275Z,27.25
2023-06-07T09:10:59.332Z,30.60
2023-06-07T09:11:59.366Z,36.29
2023-06-07T09:12:59.412Z,24.33
2023-06-07T09:13:59.485Z,25.26
2023-06-07T09:14:59.529Z,28.78
2023-06-07T09:15:59.564Z,27.07
2023-06-07T09:16:59.775Z,25.27
2023-06-07T09:18:00.032Z,25.78
2023-06-07T09:18:59.717Z,35.70
2023-06-07T09:19:59.762Z,43.43
2023-06-07T09:20:59.759Z,31.90
2023-06-07T09:21:59.757Z,30.62
2023-06-07T09:22:59.767Z,36.94
2023-06-07T09:23:59.894Z,39.18
2023-06-07T09:24:59.785Z,49.68
2023-06-07T09:25:59.780Z,57.19
2023-06-07T09:26:59.814Z,54.21
2023-06-07T09:27:59.851Z,55.47
2023-06-07T09:28:59.890Z,55.87
2023-06-07T09:29:59.935Z,37.64
2023-06-07T09:31:00.006Z,28.58
2023-06-07T09:32:00.075Z,32.18
2023-06-07T09:33:00.220Z,26.50
2023-06-07T09:34:00.181Z,28.93
2023-06-07T09:35:00.236Z,24.96
2023-06-07T09:36:00.316Z,24.14
2023-06-07T09:37:00.478Z,25.00
2023-06-07T09:38:00.433Z,25.00
2023-06-07T09:39:00.425Z,24.22
2023-06-07T09:40:00.496Z,25.00
2023-06-07T09:41:03.010Z,34.31
2023-06-07T09:42:00.530Z,40.83
2023-06-07T09:43:00.724Z,43.83
2023-06-07T09:44:00.515Z,36.20
2023-06-07T09:45:00.504Z,30.75
2023-06-07T09:46:00.562Z,28.67
2023-06-07T09:47:04.062Z,30.55
2023-06-07T09:48:00.466Z,30.57
2023-06-07T09:49:00.433Z,30.43
2023-06-07T09:50:00.415Z,32.29
2023-06-07T09:51:00.434Z,37.20
2023-06-07T09:52:00.435Z,41.08
2023-06-07T09:53:00.380Z,32.24
2023-06-07T09:54:00.320Z,26.07
2023-06-07T09:55:00.339Z,27.28
2023-06-07T09:56:00.276Z,26.13
2023-06-07T09:57:00.307Z,29.45
2023-06-07T09:58:00.325Z,33.52
2023-06-07T09:59:00.256Z,40.29
2023-06-07T10:00:00.316Z,39.00
2023-06-07T10:01:00.230Z,36.89
2023-06-07T10:02:00.176Z,39.79
2023-06-07T10:03:00.153Z,48.07
2023-06-07T10:04:00.255Z,48.19
2023-06-07T10:05:00.176Z,40.94
2023-06-07T10:06:00.110Z,40.51
2023-06-07T10:07:00.144Z,42.18
2023-06-07T10:08:00.128Z,48.66
2023-06-07T10:09:00.068Z,45.02
2023-06-07T10:10:00.090Z,37.99
2023-06-07T10:11:00.096Z,33.37
2023-06-07T10:12:00.121Z,38.05
2023-06-07T10:13:00.138Z,42.50
2023-06-07T10:14:00.164Z,42.15
2023-06-07T10:15:00.179Z,46.42
2023-06-07T10:16:00.269Z,50.91
2023-06-07T10:17:00.304Z,51.90
2023-06-07T10:18:01.988Z,41.12
2023-06-07T10:19:00.341Z,42.12
2023-06-07T10:20:00.469Z,44.31
2023-06-07T10:21:00.397Z,41.84
2023-06-07T10:22:00.447Z,45.77
2023-06-07T10:23:00.602Z,50.23
2023-06-07T10:24:02.502Z,52.36
2023-06-07T10:25:00.548Z,53.58
2023-06-07T10:26:01.507Z,45.09
2023-06-07T10:27:00.481Z,43.55
2023-06-07T10:28:00.490Z,45.58
2023-06-07T10:29:00.435Z,47.55
2023-06-07T10:30:00.426Z,45.64
2023-06-07T10:31:00.410Z,41.01
2023-06-07T10:32:00.498Z,40.48
2023-06-07T10:33:00.480Z,36.34
2023-06-07T10:34:00.444Z,25.00
2023-06-07T10:35:00.344Z,25.02
2023-06-07T10:36:00.326Z,25.58
2023-06-07T10:37:00.376Z,21.50
2023-06-07T10:38:00.303Z,25.67
2023-06-07T10:39:00.296Z,30.83
2023-06-07T10:40:00.404Z,27.77
2023-06-07T10:41:00.326Z,31.66
2023-06-07T10:42:00.379Z,37.26
2023-06-07T10:43:00.390Z,40.87
2023-06-07T10:44:00.403Z,38.66
2023-06-07T10:45:00.498Z,40.94
2023-06-07T10:46:00.505Z,36.03
2023-06-07T10:47:00.519Z,26.31
2023-06-07T10:48:00.515Z,25.00
2023-06-07T10:49:00.555Z,23.62
2023-06-07T10:50:00.517Z,25.92
2023-06-07T10:51:00.513Z,25.00
2023-06-07T10:52:00.832Z,27.81
2023-06-07T10:53:00.550Z,30.13
2023-06-07T10:54:00.566Z,38.28
2023-06-07T10:55:00.593Z,45.63
2023-06-07T10:56:00.590Z,50.18
2023-06-07T10:57:00.645Z,51.07
2023-06-07T10:58:00.672Z,39.09
2023-06-07T10:59:00.657Z,42.12
2023-06-07T11:00:00.655Z,48.34
2023-06-07T11:01:00.715Z,51.89
2023-06-07T11:02:00.753Z,54.87
2023-06-07T11:03:00.772Z,55.73
2023-06-07T11:04:00.967Z,51.18
2023-06-07T11:05:01.051Z,43.70
2023-06-07T11:06:00.888Z,45.52
2023-06-07T11:07:00.848Z,37.05
2023-06-07T11:08:00.793Z,34.41
2023-06-07T11:09:00.795Z,27.67
2023-06-07T11:10:00.837Z,26.54
2023-06-07T11:11:00.926Z,31.83
2023-06-07T11:12:00.918Z,33.21
2023-06-07T11:13:00.851Z,33.34
2023-06-07T11:14:00.850Z,34.76
2023-06-07T11:15:00.873Z,38.21
2023-06-07T11:16:00.873Z,45.67
2023-06-07T11:17:00.978Z,34.07
2023-06-07T11:18:00.894Z,34.33
2023-06-07T11:19:00.766Z,39.09
2023-06-07T11:20:01.015Z,48.59
2023-06-07T11:21:00.815Z,65.24
2023-06-07T11:22:00.821Z,88.43
2023-06-07T11:23:00.709Z,95.43
2023-06-07T11:24:00.788Z,99.55
2023-06-07T11:25:00.678Z,106.14
2023-06-07T11:26:00.834Z,109.96
2023-06-07T11:27:00.737Z,113.70
2023-06-07T11:28:00.789Z,116.77
2023-06-07T11:29:00.834Z,117.87
2023-06-07T11:30:00.853Z,119.47
2023-06-07T11:31:00.913Z,121.51
2023-06-07T11:32:01.038Z,123.82
2023-06-07T11:33:01.028Z,125.66
2023-06-07T11:34:01.060Z,125.96
2023-06-07T11:35:01.125Z,127.37
2023-06-07T11:36:01.164Z,127.98
2023-06-07T11:37:01.220Z,130.02
2023-06-07T11:38:01.260Z,131.92
2023-06-07T11:39:01.324Z,133.20
2023-06-07T11:40:01.435Z,134.63
2023-06-07T11:41:01.437Z,135.17
2023-06-07T11:42:01.500Z,135.42
2023-06-07T11:43:01.543Z,135.22
2023-06-07T11:44:01.584Z,135.60
2023-06-07T11:45:01.650Z,136.08
2023-06-07T11:46:01.743Z,137.29
2023-06-07T11:47:01.794Z,139.03
2023-06-07T11:48:01.918Z,138.89
2023-06-07T11:49:01.983Z,140.07
2023-06-07T11:50:01.846Z,140.10
2023-06-07T11:51:01.850Z,140.36
2023-06-07T11:52:01.809Z,141.08
2023-06-07T11:53:01.784Z,142.41
2023-06-07T11:54:01.774Z,143.49
2023-06-07T11:55:01.758Z,144.56
2023-06-07T11:56:01.742Z,145.19
2023-06-07T11:57:01.723Z,145.73
2023-06-07T11:58:01.697Z,146.64
2023-06-07T11:59:01.678Z,146.50
2023-06-07T12:00:01.683Z,147.57
2023-06-07T12:01:01.745Z,148.69
2023-06-07T12:02:01.850Z,149.06
2023-06-07T12:03:02.030Z,150.18
2023-06-07T12:04:01.948Z,150.22
2023-06-07T12:05:01.925Z,150.46
2023-06-07T12:06:01.835Z,151.09
2023-06-07T12:07:01.827Z,151.64
2023-06-07T12:08:01.814Z,151.86
2023-06-07T12:09:01.813Z,152.17
2023-06-07T12:10:02.451Z,153.11
2023-06-07T12:11:01.880Z,154.11
2023-06-07T12:12:02.360Z,154.04
2023-06-07T12:13:01.915Z,154.23
2023-06-07T12:14:01.965Z,155.33
2023-06-07T12:15:01.971Z,155.98
2023-06-07T12:16:02.011Z,155.86
2023-06-07T12:17:02.105Z,156.02
2023-06-07T12:18:02.175Z,155.99
2023-06-07T12:19:02.176Z,158.07
2023-06-07T12:20:02.291Z,157.73
2023-06-07T12:21:02.252Z,158.50
2023-06-07T12:22:02.317Z,158.21
2023-06-07T12:23:02.362Z,158.85
2023-06-07T12:24:02.480Z,158.68
2023-06-07T12:25:02.479Z,160.21
2023-06-07T12:26:02.688Z,159.44
2023-06-07T12:27:02.593Z,159.81
2023-06-07T12:28:02.669Z,160.37
2023-06-07T12:29:02.731Z,160.94
2023-06-07T12:30:03.062Z,160.62
2023-06-07T12:31:02.827Z,162.04
2023-06-07T12:32:02.875Z,162.69
2023-06-07T12:33:02.917Z,162.82
2023-06-07T12:34:02.986Z,163.83
2023-06-07T12:35:03.579Z,163.74
2023-06-07T12:36:03.039Z,164.03
2023-06-07T12:37:03.128Z,164.75
2023-06-07T12:38:03.157Z,164.63
2023-06-07T12:39:03.195Z,165.06
2023-06-07T12:40:03.258Z,166.26
2023-06-07T12:41:03.313Z,166.46